Time;durP1;ratioP1;P1;durP2;ratioP2;P2;SDS_P1;SDS_P2;PMS_P1;PMS_P2;Temp;Humidity;BMP_temperature;BMP_pressure;BME280_temperature;BME280_humidity;BME280_pressure;Samples;Min_cycle;Max_cycle;Signal;HPM_P1;HPM_P2
2024/02/27 00:01:32;;;;;;;37.25;23.48;;;;;;;10.09;63.30;94466.28;4240940;27;20153;-68
2024/02/27 00:03:34;;;;;;;32.25;22.38;;;;;;;10.28;62.44;94466.94;4220282;28;20047;-70
2024/02/27 00:05:36;;;;;;;32.40;21.17;;;;;;;10.47;62.37;94471.09;4244161;27;20078;-71
2024/02/27 00:07:38;;;;;;;31.10;23.00;;;;;;;10.55;61.25;94471.09;4238309;27;20047;-71
2024/02/27 00:09:47;;;;;;;30.63;21.70;;;;;;;10.34;62.09;94467.16;4222043;28;20043;-69
2024/02/27 00:11:49;;;;;;;35.30;22.48;;;;;;;10.30;62.13;94472.88;4236285;27;20046;-70
2024/02/27 00:13:51;;;;;;;30.77;21.40;;;;;;;10.32;62.22;94465.69;4217035;28;20129;-70
2024/02/27 00:15:53;;;;;;;29.58;21.30;;;;;;;10.22;62.46;94474.50;4242119;27;20276;-69
2024/02/27 00:17:55;;;;;;;28.95;20.05;;;;;;;10.12;63.10;94476.44;4224830;28;20281;-68
2024/02/27 00:19:57;;;;;;;28.90;20.55;;;;;;;10.21;63.00;94480.69;4221942;28;20162;-71
2024/02/27 00:21:59;;;;;;;38.40;22.58;;;;;;;10.33;62.19;94478.63;4237635;27;20567;-70
2024/02/27 00:24:01;;;;;;;34.72;23.95;;;;;;;10.39;62.39;94477.13;4239552;27;20151;-68
2024/02/27 00:26:03;;;;;;;39.50;25.10;;;;;;;10.45;62.10;94473.84;4238503;27;20039;-69
2024/02/27 00:28:05;;;;;;;30.23;22.85;;;;;;;10.39;62.14;94477.97;4242689;27;20043;-70
2024/02/27 00:30:07;;;;;;;33.53;21.35;;;;;;;10.42;62.20;94479.44;4234024;27;20067;-70
2024/02/27 00:32:09;;;;;;;30.80;21.65;;;;;;;10.47;61.86;94474.53;4235785;27;20510;-69
2024/02/27 00:34:11;;;;;;;28.33;20.60;;;;;;;10.56;62.26;94478.78;4213653;28;20793;-69
2024/02/27 00:36:13;;;;;;;29.13;21.40;;;;;;;10.65;61.69;94480.41;4240109;27;20164;-69
2024/02/27 00:38:15;;;;;;;28.60;20.75;;;;;;;10.75;61.42;94477.59;4231306;27;20050;-69
2024/02/27 00:40:17;;;;;;;33.17;20.15;;;;;;;10.82;60.90;94478.59;4231548;27;20134;-69
2024/02/27 00:42:19;;;;;;;29.80;19.48;;;;;;;10.90;60.63;94471.72;4242847;27;20038;-69
2024/02/27 00:44:21;;;;;;;27.08;19.40;;;;;;;10.94;60.40;94475.63;4238352;27;20124;-70
2024/02/27 00:46:23;;;;;;;30.25;20.55;;;;;;;10.98;60.45;94464.66;4242292;27;20065;-69
2024/02/27 00:48:24;;;;;;;28.48;20.73;;;;;;;10.94;60.21;94471.19;4237187;27;20055;-68
2024/02/27 00:50:30;;;;;;;27.90;20.75;;;;;;;10.75;60.61;94475.00;4228666;28;20043;-70
2024/02/27 00:52:32;;;;;;;27.92;20.95;;;;;;;10.53;61.02;94476.47;4218503;28;20061;-69
2024/02/27 00:54:33;;;;;;;26.92;19.92;;;;;;;10.51;61.84;94467.97;4242055;27;20043;-69
2024/02/27 00:56:35;;;;;;;26.17;19.40;;;;;;;10.55;61.50;94471.91;4241369;27;20135;-71
2024/02/27 00:58:37;;;;;;;29.33;20.05;;;;;;;10.61;61.59;94473.06;4223194;28;20060;-68
2024/02/27 01:00:39;;;;;;;28.50;20.20;;;;;;;10.69;61.30;94461.75;4237471;28;20048;-70
2024/02/27 01:02:42;;;;;;;25.25;19.05;;;;;;;10.77;61.08;94459.13;4201428;28;20120;-70
2024/02/27 01:04:44;;;;;;;26.33;19.40;;;;;;;10.85;60.60;94466.97;4236863;28;20122;-71
2024/02/27 01:06:45;;;;;;;22.95;18.23;;;;;;;10.89;60.48;94460.41;4233058;28;20087;-70
2024/02/27 01:08:48;;;;;;;24.27;19.30;;;;;;;10.92;60.67;94462.69;4238264;28;20108;-70
2024/02/27 01:10:49;;;;;;;24.92;18.98;;;;;;;10.92;60.56;94467.13;4228480;28;20040;-69
2024/02/27 01:12:53;;;;;;;31.17;18.95;;;;;;;10.89;60.61;94462.22;4238058;28;21005;-70
2024/02/27 01:14:55;;;;;;;28.83;19.15;;;;;;;10.92;60.64;94465.31;4242698;28;20515;-70
2024/02/27 01:16:57;;;;;;;22.67;17.75;;;;;;;10.91;60.69;94465.50;4236897;28;20047;-67
2024/02/27 01:19:00;;;;;;;25.90;18.45;;;;;;;10.89;60.64;94457.78;4231079;28;20392;-68
2024/02/27 01:21:05;;;;;;;27.98;18.63;;;;;;;10.92;60.44;94462.69;4224567;28;20121;-69
2024/02/27 01:23:07;;;;;;;25.70;18.38;;;;;;;10.85;60.60;94462.53;4242720;28;20052;-68
2024/02/27 01:25:12;;;;;;;26.50;18.23;;;;;;;10.58;60.97;94461.13;4224140;28;20135;-70
2024/02/27 01:27:14;;;;;;;27.00;19.63;;;;;;;9.91;63.10;94468.22;4233944;28;20055;-70
2024/02/27 01:29:16;;;;;;;26.25;17.48;;;;;;;9.78;63.78;94469.50;4238169;28;20088;-70
2024/02/27 01:31:18;;;;;;;29.27;18.95;;;;;;;9.78;64.01;94459.03;4242083;28;20050;-69
2024/02/27 01:33:19;;;;;;;27.05;17.15;;;;;;;9.73;63.64;94466.53;4235271;28;20122;-69
2024/02/27 01:35:22;;;;;;;32.10;20.63;;;;;;;9.78;63.58;94466.06;4237556;28;20051;-71
2024/02/27 01:37:23;;;;;;;28.35;18.52;;;;;;;9.89;64.09;94460.53;4241787;28;20077;-69
2024/02/27 01:39:26;;;;;;;28.98;20.27;;;;;;;10.06;63.87;94450.91;4242627;28;20125;-66
2024/02/27 01:41:28;;;;;;;25.73;20.00;;;;;;;10.21;63.40;94458.94;4233326;28;20093;-70
2024/02/27 01:43:30;;;;;;;29.35;21.00;;;;;;;10.28;62.80;94457.28;4239954;28;20063;-71
2024/02/27 01:45:32;;;;;;;25.58;19.27;;;;;;;10.35;62.40;94453.09;4242619;28;20134;-70
2024/02/27 01:47:35;;;;;;;26.95;19.58;;;;;;;10.45;62.36;94452.91;4238976;28;20047;-70
2024/02/27 01:49:37;;;;;;;29.80;18.85;;;;;;;10.53;62.18;94446.88;4233244;28;20158;-68
2024/02/27 01:51:41;;;;;;;24.42;19.05;;;;;;;10.61;61.92;94450.28;4229735;28;20051;-69
2024/02/27 01:53:45;;;;;;;23.80;17.85;;;;;;;10.70;61.72;94445.84;4213658;28;20087;-69
2024/02/27 01:55:48;;;;;;;29.83;18.23;;;;;;;10.78;61.59;94445.84;4214608;28;20048;-69
2024/02/27 01:57:50;;;;;;;26.05;18.65;;;;;;;10.83;60.83;94447.97;4236623;28;20047;-71
2024/02/27 01:59:52;;;;;;;26.23;17.92;;;;;;;10.84;60.83;94444.34;4220697;28;20058;-68
2024/02/27 02:01:54;;;;;;;28.08;17.70;;;;;;;10.84;60.96;94445.19;4223795;28;20566;-67
2024/02/27 02:03:56;;;;;;;24.55;17.83;;;;;;;10.77;61.20;94446.00;4240000;27;20070;-68
2024/02/27 02:05:59;;;;;;;25.17;18.40;;;;;;;10.74;61.14;94446.34;4227560;28;20043;-70
2024/02/27 02:08:01;;;;;;;22.95;16.05;;;;;;;10.61;61.29;94447.69;4241981;27;20136;-71
2024/02/27 02:10:03;;;;;;;22.65;16.88;;;;;;;10.52;62.01;94451.28;4240979;27;20047;-68
2024/02/27 02:12:06;;;;;;;21.60;16.10;;;;;;;10.50;61.71;94450.63;4232306;27;20126;-68
2024/02/27 02:14:08;;;;;;;26.77;17.10;;;;;;;10.52;61.57;94451.28;4211932;28;20052;-69
2024/02/27 02:16:10;;;;;;;26.15;18.77;;;;;;;10.47;61.73;94444.91;4233056;27;20051;-69
2024/02/27 02:18:13;;;;;;;26.08;18.83;;;;;;;10.30;62.09;94451.94;4240449;27;20180;-69
2024/02/27 02:20:16;;;;;;;26.40;19.13;;;;;;;10.27;62.43;94447.00;4236825;27;20057;-68
2024/02/27 02:22:18;;;;;;;26.70;19.27;;;;;;;10.30;62.65;94447.50;4225546;28;20566;-69
2024/02/27 02:24:21;;;;;;;25.65;18.73;;;;;;;10.42;62.88;94445.41;4236143;27;20047;-70
2024/02/27 02:26:25;;;;;;;26.98;20.00;;;;;;;10.53;62.43;94446.88;4208835;28;20048;-69
2024/02/27 02:28:27;;;;;;;29.67;18.80;;;;;;;10.63;62.13;94452.75;4241625;27;20475;-70
2024/02/27 02:30:28;;;;;;;25.77;19.63;;;;;;;10.69;61.36;94456.50;4198480;27;20044;-71
2024/02/27 02:32:30;;;;;;;25.92;19.58;;;;;;;10.76;61.46;94449.63;4244846;27;20066;-69
2024/02/27 02:34:33;;;;;;;27.58;20.20;;;;;;;10.73;61.19;94444.72;4222485;28;20132;-70
2024/02/27 02:36:35;;;;;;;26.93;19.90;;;;;;;10.76;61.25;94450.44;4241706;27;20518;-70
2024/02/27 02:38:37;;;;;;;26.67;18.65;;;;;;;10.80;61.56;94448.31;4229522;27;20471;-67
2024/02/27 02:40:39;;;;;;;33.13;19.17;;;;;;;10.87;61.57;94449.28;4240671;27;20128;-71
2024/02/27 02:42:41;;;;;;;27.20;19.33;;;;;;;10.89;60.91;94449.94;4243600;27;20047;-68
2024/02/27 02:44:43;;;;;;;28.77;20.27;;;;;;;10.77;61.44;94457.31;4245420;27;20055;-69
2024/02/27 02:46:46;;;;;;;26.80;20.50;;;;;;;10.40;62.26;94465.69;4245103;27;20376;-70
2024/02/27 02:48:47;;;;;;;27.60;21.27;;;;;;;10.16;62.93;94466.47;4244804;27;20054;-68
2024/02/27 02:50:49;;;;;;;28.02;21.45;;;;;;;9.81;64.03;94469.19;4241192;27;20051;-69
2024/02/27 02:52:51;;;;;;;27.30;20.92;;;;;;;9.77;64.18;94473.09;4237796;27;20134;-69
2024/02/27 02:55:02;;;;;;;29.92;22.23;;;;;;;9.67;65.27;94477.63;4239761;27;20138;-68
2024/02/27 02:57:04;;;;;;;28.35;21.05;;;;;;;9.46;65.42;94479.84;4241458;27;20051;-71
2024/02/27 02:59:06;;;;;;;31.13;21.83;;;;;;;9.29;66.12;94485.03;4237320;27;20453;-69
2024/02/27 03:01:08;;;;;;;30.27;21.95;;;;;;;9.14;67.48;94497.00;4223187;28;20051;-70
2024/02/27 03:03:09;;;;;;;28.77;21.55;;;;;;;9.16;67.37;94490.69;4242574;27;20444;-69
2024/02/27 03:05:12;;;;;;;31.65;20.50;;;;;;;9.31;66.83;94493.50;4243985;27;20047;-69
2024/02/27 03:07:14;;;;;;;35.20;22.52;;;;;;;9.54;66.66;94487.72;4243820;27;20074;-69
2024/02/27 03:09:18;;;;;;;30.23;21.98;;;;;;;9.63;66.01;94486.78;4244819;27;20467;-71
2024/02/27 03:11:20;;;;;;;;;;;;;;;9.78;65.84;94479.13;4239807;27;20051;-70
2024/02/27 03:13:22;;;;;;;29.40;22.15;;;;;;;9.84;64.98;94483.75;4241767;27;20022;-71
2024/02/27 03:15:25;;;;;;;35.92;22.10;;;;;;;9.91;65.05;94484.72;4242666;27;20082;-69
2024/02/27 03:17:26;;;;;;;32.20;21.42;;;;;;;10.02;64.72;94483.59;4243432;27;20126;-69
2024/02/27 03:19:30;;;;;;;29.00;23.67;;;;;;;10.09;64.30;94482.00;4244220;27;20086;-70
2024/02/27 03:21:32;;;;;;;;;;;;;;;10.19;64.13;94482.66;4244751;27;20405;-68
2024/02/27 03:23:34;;;;;;;33.05;22.92;;;;;;;10.28;63.51;94482.66;4226480;28;19980;-70
2024/02/27 03:25:36;;;;;;;30.65;21.73;;;;;;;10.33;63.46;94478.63;4244586;27;20475;-69
2024/02/27 03:27:39;;;;;;;33.80;22.38;;;;;;;10.39;63.03;94477.13;4243863;27;20411;-69
2024/02/27 03:29:42;;;;;;;31.75;22.67;;;;;;;10.44;63.07;94485.34;4243554;27;20062;-70
2024/02/27 03:31:43;;;;;;;30.80;22.10;;;;;;;10.50;62.86;94489.09;4226441;28;20082;-70
2024/02/27 03:33:45;;;;;;;32.40;22.20;;;;;;;10.54;62.61;94493.84;4222577;28;20427;-70
2024/02/27 03:35:47;;;;;;;33.65;21.55;;;;;;;10.56;62.38;94494.50;4216709;28;20352;-70
2024/02/27 03:37:49;;;;;;;31.17;24.13;;;;;;;10.61;62.35;94494.81;4225373;28;20044;-70
2024/02/27 03:39:51;;;;;;;30.25;23.05;;;;;;;10.63;62.22;94494.66;4242209;27;20079;-70
2024/02/27 03:41:53;;;;;;;37.35;23.02;;;;;;;10.62;62.59;94496.44;4236418;27;20050;-69
2024/02/27 03:43:54;;;;;;;31.33;21.45;;;;;;;10.57;62.82;94496.13;4238461;27;20479;-69
2024/02/27 03:45:56;;;;;;;36.95;24.50;;;;;;;10.35;63.43;94488.94;4218183;28;20074;-70
2024/02/27 03:47:58;;;;;;;31.20;23.33;;;;;;;10.04;64.40;94494.72;4243977;27;20495;-70
2024/02/27 03:50:00;;;;;;;30.55;22.88;;;;;;;10.02;64.67;94496.69;4237827;27;20046;-69
2024/02/27 03:52:02;;;;;;;30.05;22.38;;;;;;;10.05;64.61;94496.38;4224285;28;20062;-69
2024/02/27 03:54:04;;;;;;;34.40;23.15;;;;;;;10.08;64.70;94495.25;4242126;27;20166;-68
2024/02/27 03:56:07;;;;;;;30.15;22.58;;;;;;;10.12;64.52;94499.19;4236336;27;20052;-70
2024/02/27 03:58:10;;;;;;;30.75;23.63;;;;;;;10.17;64.68;94494.25;4240779;27;20415;-71
2024/02/27 04:00:13;;;;;;;33.53;23.58;;;;;;;10.07;64.47;94504.91;4240529;27;20418;-70
2024/02/27 04:02:15;;;;;;;35.00;26.30;;;;;;;9.99;64.40;94502.25;4242951;27;20055;-71
2024/02/27 04:04:17;;;;;;;37.55;25.35;;;;;;;9.93;65.15;94500.28;4234043;27;20479;-69
2024/02/27 04:06:19;;;;;;;33.13;25.02;;;;;;;9.76;65.39;94502.84;4242787;27;20425;-70
2024/02/27 04:08:21;;;;;;;31.58;23.40;;;;;;;9.69;66.66;94506.25;4225296;28;20353;-71
2024/02/27 04:10:22;;;;;;;34.70;23.58;;;;;;;9.77;65.84;94507.09;4242044;27;20047;-70
2024/02/27 04:12:24;;;;;;;36.30;24.48;;;;;;;9.72;65.48;94498.94;4242028;27;20069;-71
2024/02/27 04:14:26;;;;;;;30.70;23.52;;;;;;;9.66;66.40;94501.31;4225463;28;20108;-71
2024/02/27 04:16:28;;;;;;;27.27;22.58;;;;;;;9.49;66.86;94505.69;4233850;27;20043;-70
2024/02/27 04:18:30;;;;;;;32.58;22.63;;;;;;;9.58;66.92;94505.56;4231542;27;20054;-69
2024/02/27 04:20:33;;;;;;;36.20;23.95;;;;;;;9.72;66.73;94505.94;4243545;27;20075;-71
2024/02/27 04:22:37;;;;;;;36.08;22.20;;;;;;;9.89;65.97;94506.81;4224779;28;20059;-70
2024/02/27 04:24:38;;;;;;;27.25;21.63;;;;;;;9.96;65.67;94513.88;4241890;27;20058;-69
2024/02/27 04:26:40;;;;;;;32.67;23.55;;;;;;;10.01;65.25;94508.97;4235603;27;20047;-71
2024/02/27 04:28:43;;;;;;;27.52;20.50;;;;;;;9.78;65.18;94513.16;4242156;27;20078;-71
2024/02/27 04:30:44;;;;;;;32.45;21.75;;;;;;;9.42;66.84;94511.56;4230468;27;20052;-69
2024/02/27 04:32:46;;;;;;;32.60;23.67;;;;;;;9.07;67.95;94522.13;4229237;27;20597;-70
2024/02/27 04:34:48;;;;;;;28.42;23.38;;;;;;;8.78;69.50;94523.25;4243286;27;20047;-69
2024/02/27 04:36:51;;;;;;;38.65;26.08;;;;;;;8.54;70.28;94529.09;4233409;27;20052;-68
2024/02/27 04:38:53;;;;;;;39.10;27.45;;;;;;;8.55;71.02;94533.34;4239451;27;20059;-68
2024/02/27 04:40:54;;;;;;;47.10;32.42;;;;;;;8.57;70.41;94539.25;4243313;27;20303;-70
2024/02/27 04:42:56;;;;;;;36.85;26.10;;;;;;;8.71;71.13;94537.88;4219941;28;20111;-68
2024/02/27 04:44:58;;;;;;;35.85;26.88;;;;;;;8.92;69.66;94542.78;4242438;27;20051;-69
2024/02/27 04:47:00;;;;;;;38.13;28.27;;;;;;;9.17;69.62;94544.56;4242809;27;20482;-70
2024/02/27 04:49:02;;;;;;;39.25;26.05;;;;;;;9.37;68.59;94547.78;4239003;27;20047;-70
2024/02/27 04:51:06;;;;;;;34.67;26.95;;;;;;;9.54;68.03;94551.31;4237849;27;20402;-69
2024/02/27 04:53:08;;;;;;;;;;;;;;;9.68;67.52;94552.53;4228533;28;20048;-70
2024/02/27 04:55:10;;;;;;;33.55;24.13;;;;;;;9.74;66.83;94553.69;4224934;28;19926;-69
2024/02/27 04:57:12;;;;;;;35.30;23.38;;;;;;;9.82;66.69;94558.94;4240978;27;20127;-70
2024/02/27 04:59:14;;;;;;;34.80;24.77;;;;;;;9.91;66.68;94557.19;4242561;27;20047;-71
2024/02/27 05:01:16;;;;;;;34.08;23.98;;;;;;;9.97;66.14;94567.03;4224648;28;20471;-69
2024/02/27 05:03:18;;;;;;;29.27;22.30;;;;;;;10.04;66.37;94553.16;4238447;27;20050;-71
2024/02/27 05:05:20;;;;;;;31.13;22.05;;;;;;;10.10;65.59;94556.91;4242625;28;20043;-70
2024/02/27 05:07:22;;;;;;;32.97;22.55;;;;;;;10.15;66.02;94552.03;4217257;28;20056;-71
2024/02/27 05:09:24;;;;;;;28.35;22.05;;;;;;;10.22;65.71;94552.22;4240052;28;20057;-70
2024/02/27 05:11:26;;;;;;;37.22;22.63;;;;;;;10.19;65.33;94561.19;4241311;28;20051;-70
2024/02/27 05:13:28;;;;;;;39.30;24.23;;;;;;;10.10;65.80;94563.94;4234582;28;20047;-70
2024/02/27 05:15:30;;;;;;;32.38;23.02;;;;;;;10.09;65.57;94564.91;4233965;28;20146;-70
2024/02/27 05:17:32;;;;;;;32.97;22.73;;;;;;;10.05;65.86;94564.44;4231924;28;20071;-71
2024/02/27 05:19:34;;;;;;;30.98;22.63;;;;;;;10.08;65.69;94568.53;4229778;28;20076;-69
2024/02/27 05:21:36;;;;;;;31.15;24.05;;;;;;;10.15;65.58;94567.75;4227709;28;20154;-71
2024/02/27 05:23:38;;;;;;;28.63;23.02;;;;;;;10.21;65.35;94574.13;4218986;28;20052;-68
2024/02/27 05:25:41;;;;;;;31.15;22.05;;;;;;;10.27;65.12;94570.88;4241532;28;20486;-70
2024/02/27 05:27:42;;;;;;;27.92;22.90;;;;;;;10.32;65.30;94575.66;4241079;28;20039;-69
2024/02/27 05:29:44;;;;;;;31.67;23.08;;;;;;;10.40;65.54;94575.66;4240948;28;20519;-69
2024/02/27 05:31:46;;;;;;;34.72;23.42;;;;;;;10.42;65.27;94576.34;4242164;28;20173;-72
2024/02/27 05:33:48;;;;;;;29.65;23.17;;;;;;;10.44;64.98;94582.22;4237782;28;20119;-69
2024/02/27 05:35:50;;;;;;;33.55;23.02;;;;;;;10.49;64.76;94584.38;4242302;27;20047;-72
2024/02/27 05:37:52;;;;;;;28.13;21.98;;;;;;;10.52;64.90;94584.88;4242551;27;20146;-69
2024/02/27 05:39:54;;;;;;;28.10;20.88;;;;;;;10.58;64.35;94586.84;4220765;28;20070;-71
2024/02/27 05:41:56;;;;;;;27.48;20.58;;;;;;;10.61;64.46;94597.00;4243392;27;20095;-69
2024/02/27 05:43:57;;;;;;;30.52;21.77;;;;;;;10.68;64.95;94596.34;4246088;27;20045;-70
2024/02/27 05:45:59;;;;;;;30.25;21.98;;;;;;;10.69;64.84;94596.19;4235461;27;20533;-71
2024/02/27 05:48:02;;;;;;;29.30;21.40;;;;;;;10.76;64.68;94599.78;4244469;27;20090;-70
2024/02/27 05:50:06;;;;;;;27.70;20.98;;;;;;;10.79;64.48;94593.41;4245318;27;20039;-69
2024/02/27 05:52:08;;;;;;;28.60;21.25;;;;;;;10.82;64.07;94598.34;4239883;27;20122;-69
2024/02/27 05:54:10;;;;;;;30.95;21.25;;;;;;;10.86;63.92;94602.25;4226729;28;20123;-69
2024/02/27 05:56:13;;;;;;;34.28;20.85;;;;;;;10.91;63.58;94605.22;4245278;27;20123;-69
2024/02/27 05:58:16;;;;;;;27.38;21.75;;;;;;;10.92;63.60;94603.41;4243455;27;20553;-71
2024/02/27 06:00:18;;;;;;;30.33;21.23;;;;;;;10.93;63.77;94611.09;4235586;27;20073;-71
2024/02/27 06:02:20;;;;;;;31.17;21.80;;;;;;;10.94;63.76;94607.50;4244656;27;20116;-71
2024/02/27 06:04:22;;;;;;;26.48;21.00;;;;;;;10.93;63.57;94615.53;4241298;27;20130;-69
2024/02/27 06:06:24;;;;;;;32.10;21.95;;;;;;;10.94;63.71;94611.91;4241995;27;20082;-69
2024/02/27 06:08:26;;;;;;;30.88;22.13;;;;;;;10.97;63.86;94611.59;4244648;27;20765;-69
2024/02/27 06:10:28;;;;;;;39.25;22.05;;;;;;;11.02;63.63;94612.75;4237296;27;20486;-71
2024/02/27 06:12:30;;;;;;;39.38;23.85;;;;;;;11.03;63.48;94613.56;4243689;27;20492;-69
2024/02/27 06:14:32;;;;;;;38.75;23.15;;;;;;;11.08;63.79;94616.53;4238656;27;20158;-70
2024/02/27 06:16:33;;;;;;;31.73;22.00;;;;;;;11.12;63.37;94623.06;4240400;27;20058;-71
2024/02/27 06:18:37;;;;;;;31.88;22.27;;;;;;;11.14;63.38;94613.25;4239728;27;20044;-71
2024/02/27 06:23:02;;;;;;;34.03;24.42;;;;;;;11.17;63.35;94627.81;4236471;27;20272;-69
2024/02/27 06:25:05;;;;;;;34.75;25.20;;;;;;;10.96;63.44;94633.53;4234905;27;20035;-72
2024/02/27 06:27:08;;;;;;;33.10;23.88;;;;;;;10.96;63.83;94634.34;4241477;27;20078;-69
2024/02/27 06:29:10;;;;;;;43.80;24.60;;;;;;;10.94;63.53;94633.69;4224481;28;20056;-72
2024/02/27 06:31:12;;;;;;;36.85;24.85;;;;;;;10.91;63.47;94641.09;4233144;27;20039;-70
2024/02/27 06:33:14;;;;;;;35.50;24.92;;;;;;;10.89;63.84;94641.25;4220138;28;20048;-71
2024/02/27 06:35:16;;;;;;;38.00;23.83;;;;;;;10.93;64.01;94641.75;4222730;27;20048;-69
2024/02/27 06:37:18;;;;;;;31.95;24.27;;;;;;;11.05;63.81;94645.66;4239348;27;20044;-68
2024/02/27 06:39:21;;;;;;;37.92;24.90;;;;;;;11.21;63.53;94644.88;4235230;27;20049;-69
2024/02/27 06:41:23;;;;;;;41.88;25.13;;;;;;;11.30;62.69;94646.50;4234075;27;20051;-69
2024/02/27 06:43:25;;;;;;;37.20;24.63;;;;;;;11.39;62.56;94655.19;4241930;27;20051;-68
2024/02/27 06:45:27;;;;;;;38.47;24.55;;;;;;;11.48;61.95;94656.81;4223858;28;20161;-72
2024/02/27 06:47:29;;;;;;;32.50;24.58;;;;;;;11.61;62.02;94661.53;4237788;27;20074;-73
2024/02/27 06:49:31;;;;;;;41.00;25.00;;;;;;;11.67;61.50;94660.88;4222613;28;20054;-71
2024/02/27 06:51:33;;;;;;;40.10;26.15;;;;;;;11.61;61.30;94670.22;4243899;27;20051;-70
2024/02/27 06:53:35;;;;;;;39.30;26.90;;;;;;;11.24;62.24;94668.13;4241229;27;20142;-70
2024/02/27 06:55:37;;;;;;;46.47;26.05;;;;;;;11.22;62.76;94673.53;4243445;27;20055;-70
2024/02/27 06:57:39;;;;;;;35.92;26.23;;;;;;;11.22;62.81;94675.34;4209933;28;20052;-71
2024/02/27 06:59:41;;;;;;;46.97;26.80;;;;;;;11.03;63.21;94679.94;4242929;27;20488;-71
2024/02/27 07:01:43;;;;;;;43.83;28.25;;;;;;;11.02;63.83;94673.03;4243246;27;20070;-71
2024/02/27 07:03:45;;;;;;;42.40;29.17;;;;;;;11.03;63.41;94674.69;4240057;27;20125;-72
2024/02/27 07:05:48;;;;;;;37.72;28.45;;;;;;;11.00;63.71;94675.00;4240196;27;20055;-72
2024/02/27 07:07:54;;;;;;;41.10;27.92;;;;;;;10.93;63.55;94684.50;4236230;27;20429;-71
2024/02/27 07:09:57;;;;;;;37.70;28.08;;;;;;;11.10;63.75;94677.47;4244302;27;20134;-72
2024/02/27 07:11:59;;;;;;;42.15;28.27;;;;;;;11.28;63.13;94682.56;4218513;28;20052;-70
2024/02/27 07:14:02;;;;;;;42.63;28.95;;;;;;;11.41;62.52;94682.06;4218949;28;20095;-71
2024/02/27 07:16:04;;;;;;;46.88;28.45;;;;;;;11.47;62.42;94681.41;4239569;27;20506;-67
2024/02/27 07:18:05;;;;;;;39.33;27.52;;;;;;;11.52;61.85;94683.53;4218118;28;20146;-69
2024/02/27 07:20:09;;;;;;;38.47;29.60;;;;;;;11.48;61.91;94677.78;4244162;27;20054;-69
2024/02/27 07:22:11;;;;;;;43.20;27.95;;;;;;;11.62;61.72;94685.00;4216594;28;20599;-67
2024/02/27 07:24:13;;;;;;;49.90;28.20;;;;;;;11.79;61.67;94687.63;4244711;27;20475;-72
2024/02/27 07:26:15;;;;;;;37.20;27.52;;;;;;;12.00;61.06;94680.06;4243508;27;20043;-71
2024/02/27 07:28:17;;;;;;;37.08;27.08;;;;;;;12.21;60.70;94687.34;4240227;27;20047;-71
2024/02/27 07:30:28;;;;;;;50.70;28.02;;;;;;;12.41;59.85;94690.44;4229946;27;20451;-70
2024/02/27 07:32:30;;;;;;;40.00;27.88;;;;;;;12.54;59.58;94692.50;4236842;27;20052;-70
2024/02/27 07:34:32;;;;;;;46.85;28.67;;;;;;;12.57;59.19;94684.28;4242859;27;20095;-70
2024/02/27 07:36:34;;;;;;;38.50;28.27;;;;;;;12.62;59.17;94689.81;4242857;27;20399;-71
2024/02/27 07:38:36;;;;;;;42.03;27.60;;;;;;;12.75;59.02;94685.81;4244281;27;20101;-72
2024/02/27 07:40:38;;;;;;;39.33;26.85;;;;;;;12.83;58.34;94685.78;4242496;27;20055;-72
2024/02/27 07:42:39;;;;;;;38.20;27.30;;;;;;;12.90;58.08;94684.09;4237369;27;20062;-71
2024/02/27 07:44:41;;;;;;;43.25;28.25;;;;;;;12.94;57.95;94688.00;4242101;27;20126;-70
2024/02/27 07:46:43;;;;;;;48.35;28.10;;;;;;;13.01;57.66;94688.13;4242444;27;20134;-73
2024/02/27 07:48:46;;;;;;;36.28;27.85;;;;;;;13.01;57.90;94685.50;4241273;27;20095;-70
2024/02/27 07:50:48;;;;;;;42.78;27.60;;;;;;;12.91;57.88;94678.66;4243713;27;20127;-70
2024/02/27 07:52:50;;;;;;;42.17;27.05;;;;;;;13.00;58.15;94684.69;4243610;27;20086;-73
2024/02/27 07:54:52;;;;;;;39.00;26.48;;;;;;;13.08;57.73;94679.38;4225351;28;20086;-69
2024/02/27 07:56:53;;;;;;;36.63;24.80;;;;;;;13.07;56.69;94675.09;4243224;27;20141;-71
2024/02/27 07:58:56;;;;;;;32.30;25.15;;;;;;;12.99;56.99;94667.28;4243609;27;20078;-72
2024/02/27 08:00:58;;;;;;;34.97;24.80;;;;;;;13.03;56.76;94673.81;4243139;27;20431;-71
2024/02/27 08:03:00;;;;;;;39.28;24.70;;;;;;;13.17;56.88;94679.34;4235082;27;20095;-71
2024/02/27 08:05:03;;;;;;;33.83;25.80;;;;;;;13.24;56.36;94664.47;4242360;27;20062;-73
2024/02/27 08:07:04;;;;;;;39.00;25.75;;;;;;;13.22;56.24;94669.09;4224815;28;20123;-70
2024/02/27 08:09:06;;;;;;;39.78;25.20;;;;;;;13.26;56.44;94670.38;4244249;27;20471;-71
2024/02/27 08:11:08;;;;;;;36.15;24.60;;;;;;;13.26;56.71;94667.75;4238746;27;20089;-72
2024/02/27 08:13:10;;;;;;;32.95;22.67;;;;;;;13.28;56.14;94671.88;4225431;28;20116;-72
2024/02/27 08:15:12;;;;;;;30.42;24.20;;;;;;;13.34;56.25;94672.16;4239241;27;20059;-71
2024/02/27 08:17:14;;;;;;;38.10;25.42;;;;;;;13.47;56.14;94675.03;4235358;27;20043;-71
2024/02/27 08:19:16;;;;;;;37.85;23.00;;;;;;;13.40;55.46;94672.28;4234477;27;20052;-71
2024/02/27 08:21:18;;;;;;;35.85;22.55;;;;;;;13.45;55.47;94677.00;4239628;27;20482;-70
2024/02/27 08:23:20;;;;;;;29.80;23.15;;;;;;;13.59;55.48;94675.41;4225696;28;20043;-71
2024/02/27 08:25:22;;;;;;;36.80;23.02;;;;;;;13.78;55.23;94676.72;4221894;28;20091;-71
2024/02/27 08:27:25;;;;;;;35.67;22.02;;;;;;;13.96;54.65;94676.38;4239425;27;20428;-70
2024/02/27 08:29:27;;;;;;;35.65;23.35;;;;;;;13.99;53.81;94676.03;4239136;27;20623;-71
2024/02/27 08:31:29;;;;;;;29.02;22.02;;;;;;;13.99;53.71;94679.47;4232677;27;20475;-72
2024/02/27 08:33:31;;;;;;;31.08;22.15;;;;;;;14.02;53.40;94681.72;4243067;27;20059;-70
2024/02/27 08:35:33;;;;;;;30.88;22.45;;;;;;;14.06;53.25;94677.72;4243713;27;20074;-73
2024/02/27 08:37:34;;;;;;;27.60;22.05;;;;;;;14.24;53.58;94677.41;4229067;27;20057;-71
2024/02/27 08:39:36;;;;;;;39.85;25.63;;;;;;;13.95;53.44;94680.00;4238620;27;20047;-70
2024/02/27 08:41:41;;;;;;;31.95;22.17;;;;;;;13.75;53.44;94677.09;4240322;27;20091;-71
2024/02/27 08:43:43;;;;;;;34.08;23.92;;;;;;;13.78;54.21;94677.53;4241877;27;20054;-68
2024/02/27 08:45:45;;;;;;;35.17;24.45;;;;;;;14.02;53.88;94684.34;4239724;27;20048;-72
2024/02/27 08:47:47;;;;;;;32.58;24.10;;;;;;;14.25;53.77;94684.28;4216277;28;20461;-71
2024/02/27 08:49:49;;;;;;;40.67;24.00;;;;;;;14.46;52.91;94686.19;4225078;28;20529;-70
2024/02/27 08:51:51;;;;;;;36.53;23.48;;;;;;;14.58;52.72;94685.75;4240387;27;20054;-72
2024/02/27 08:53:53;;;;;;;36.28;23.63;;;;;;;14.61;52.11;94690.66;4229101;28;20059;-71
2024/02/27 08:55:55;;;;;;;32.28;21.15;;;;;;;14.75;52.02;94681.91;4210104;28;20054;-72
2024/02/27 08:57:56;;;;;;;28.08;22.02;;;;;;;14.88;51.32;94681.25;4240086;27;20073;-72
2024/02/27 08:59:58;;;;;;;27.85;19.85;;;;;;;15.00;50.64;94685.03;4240976;27;20051;-71
2024/02/27 09:02:01;;;;;;;28.48;20.80;;;;;;;15.15;50.32;94680.53;4240679;27;20644;-72
2024/02/27 09:04:03;;;;;;;34.70;22.88;;;;;;;15.31;50.03;94676.00;4242013;28;20254;-71
2024/02/27 09:06:05;;;;;;;31.70;22.23;;;;;;;14.85;50.16;94687.69;4230871;28;20043;-72
2024/02/27 09:08:07;;;;;;;38.53;22.23;;;;;;;14.42;51.15;94681.47;4242448;28;20051;-73
2024/02/27 09:10:10;;;;;;;30.58;21.65;;;;;;;14.51;51.35;94683.00;4225324;28;20043;-72
2024/02/27 09:12:12;;;;;;;32.55;20.77;;;;;;;14.68;50.55;94679.19;4241501;27;20043;-71
2024/02/27 09:14:14;;;;;;;28.95;20.40;;;;;;;14.55;50.33;94684.31;4238306;28;20138;-71
2024/02/27 09:16:17;;;;;;;30.58;20.05;;;;;;;14.59;50.96;94677.66;4239746;28;20112;-70
2024/02/27 09:18:19;;;;;;;25.58;19.95;;;;;;;14.77;50.60;94676.44;4239248;28;20051;-70
2024/02/27 09:20:21;;;;;;;31.02;20.55;;;;;;;15.01;50.16;94670.00;4241412;28;20047;-71
2024/02/27 09:22:22;;;;;;;28.58;19.88;;;;;;;15.28;49.51;94679.03;4235670;28;20254;-70
2024/02/27 09:24:24;;;;;;;28.30;19.85;;;;;;;15.53;48.97;94674.16;4242315;28;20047;-72
2024/02/27 09:26:26;;;;;;;24.10;17.35;;;;;;;15.66;47.81;94674.28;4241206;28;20043;-72